Time;durP1;ratioP1;P1;durP2;ratioP2;P2;SDS_P1;SDS_P2;PMS_P1;PMS_P2;Temp;Humidity;BMP_temperature;BMP_pressure;BME280_temperature;BME280_humidity;BME280_pressure;Samples;Min_cycle;Max_cycle;Signal;HPM_P1;HPM_P2
2024/01/14 00:02:21;;;;;;;;;58.00;44.67;;;;;;;;5026733;28;45938;-85
2024/01/14 00:04:46;;;;;;;;;63.00;45.33;;;;;;;;5049245;28;46297;-85
2024/01/14 00:07:11;;;;;;;;;50.33;42.00;;;;;;;;5028989;28;45267;-85
2024/01/14 00:09:36;;;;;;;;;52.67;45.00;;;;;;;;5035379;28;45252;-85
2024/01/14 00:12:02;;;;;;;;;49.25;42.50;;;;;;;;5041857;28;45417;-85
2024/01/14 00:14:27;;;;;;;;;54.75;45.00;;;;;;;;5052256;28;45211;-85
2024/01/14 00:16:52;;;;;;;;;58.33;47.33;;;;;;;;5040144;28;45582;-85
2024/01/14 00:19:18;;;;;;;;;58.33;46.67;;;;;;;;5034650;28;45266;-85
2024/01/14 00:21:43;;;;;;;;;57.50;44.25;;;;;;;;5028367;28;45661;-84
2024/01/14 00:24:08;;;;;;;;;61.33;46.67;;;;;;;;5034438;28;48487;-85
2024/01/14 00:26:33;;;;;;;;;62.33;44.67;;;;;;;;5047052;28;45238;-85
2024/01/14 00:28:59;;;;;;;;;52.00;42.00;;;;;;;;5052488;28;45240;-85
2024/01/14 00:31:24;;;;;;;;;46.50;42.50;;;;;;;;5048609;28;45271;-85
2024/01/14 00:33:49;;;;;;;;;64.75;46.50;;;;;;;;5048095;28;46279;-85
2024/01/14 00:36:15;;;;;;;;;56.75;45.75;;;;;;;;5030952;28;45374;-85
2024/01/14 00:38:40;;;;;;;;;50.50;40.25;;;;;;;;5055435;28;45541;-85
2024/01/14 00:41:05;;;;;;;;;53.00;45.33;;;;;;;;5031179;28;45282;-85
2024/01/14 00:43:31;;;;;;;;;58.33;45.67;;;;;;;;5045576;28;46246;-84
2024/01/14 00:45:56;;;;;;;;;57.67;44.67;;;;;;;;5037686;28;45427;-85
2024/01/14 00:48:21;;;;;;;;;58.33;45.00;;;;;;;;5042966;28;45313;-85
2024/01/14 00:50:47;;;;;;;;;55.25;41.75;;;;;;;;5021925;28;45282;-85
2024/01/14 00:53:12;;;;;;;;;43.33;38.67;;;;;;;;5034619;28;47180;-85
2024/01/14 00:55:37;;;;;;;;;44.67;40.00;;;;;;;;5020457;28;45966;-85
2024/01/14 00:58:03;;;;;;;;;36.00;30.67;;;;;;;;5034656;28;45342;-85
2024/01/14 01:00:28;;;;;;;;;45.75;34.50;;;;;;;;5047246;28;45366;-85
2024/01/14 01:02:53;;;;;;;;;59.67;40.67;;;;;;;;5034509;28;48040;-85
2024/01/14 01:05:18;;;;;;;;;50.67;44.00;;;;;;;;5047388;28;45382;-85
2024/01/14 01:07:45;;;;;;;;;47.75;34.50;;;;;;;;5054404;28;45430;-85
2024/01/14 01:10:10;;;;;;;;;36.25;29.75;;;;;;;;5047084;28;45461;-85
2024/01/14 01:12:35;;;;;;;;;37.50;32.00;;;;;;;;5051924;28;45254;-85
2024/01/14 01:15:00;;;;;;;;;39.00;36.00;;;;;;;;5047179;28;45382;-85
2024/01/14 01:17:26;;;;;;;;;45.00;35.00;;;;;;;;5049781;28;45532;-84
2024/01/14 01:19:51;;;;;;;;;50.75;40.75;;;;;;;;5046168;28;45500;-85
2024/01/14 01:22:16;;;;;;;;;46.25;42.25;;;;;;;;5032883;28;47110;-85
2024/01/14 01:24:41;;;;;;;;;37.75;30.50;;;;;;;;5047103;28;45227;-85
2024/01/14 01:27:07;;;;;;;;;42.00;41.00;;;;;;;;5051746;28;45614;-85
2024/01/14 01:29:32;;;;;;;;;50.33;34.00;;;;;;;;5048212;28;45239;-85
2024/01/14 01:31:57;;;;;;;;;45.33;35.00;;;;;;;;5029995;28;46224;-85
2024/01/14 01:34:22;;;;;;;;;36.25;33.75;;;;;;;;5030551;28;45395;-85
2024/01/14 01:36:47;;;;;;;;;39.00;31.00;;;;;;;;5053713;28;46334;-85
2024/01/14 01:39:14;;;;;;;;;38.33;33.67;;;;;;;;5050948;28;45268;-84
2024/01/14 01:41:39;;;;;;;;;35.00;31.75;;;;;;;;5035785;28;47537;-81
2024/01/14 01:44:04;;;;;;;;;32.67;30.00;;;;;;;;5031214;28;46326;-81
2024/01/14 01:46:29;;;;;;;;;41.33;34.33;;;;;;;;5039665;28;45484;-80
2024/01/14 01:48:55;;;;;;;;;34.67;26.67;;;;;;;;5042422;28;45298;-80
2024/01/14 01:51:20;;;;;;;;;42.25;34.00;;;;;;;;5032003;28;47042;-81
2024/01/14 01:53:45;;;;;;;;;37.25;29.00;;;;;;;;5031315;28;45374;-81
2024/01/14 01:56:11;;;;;;;;;36.00;30.50;;;;;;;;5025977;28;45411;-80
2024/01/14 01:58:36;;;;;;;;;44.75;34.50;;;;;;;;5031348;28;45429;-81
2024/01/14 02:01:05;;;;;;;;;39.25;29.75;;;;;;;;5049086;28;45292;-80
2024/01/14 02:03:30;;;;;;;;;36.50;32.75;;;;;;;;5043450;28;45327;-80
2024/01/14 02:05:57;;;;;;;;;31.00;22.50;;;;;;;;5030384;28;45441;-80
2024/01/14 02:08:22;;;;;;;;;35.75;32.50;;;;;;;;5030363;28;45410;-80
2024/01/14 02:10:47;;;;;;;;;22.25;21.00;;;;;;;;5032456;28;48165;-80
2024/01/14 02:13:12;;;;;;;;;34.33;31.00;;;;;;;;5048114;28;45334;-80
2024/01/14 02:15:38;;;;;;;;;37.33;29.00;;;;;;;;5050203;28;45384;-81
2024/01/14 02:18:03;;;;;;;;;42.00;35.67;;;;;;;;5030692;28;45264;-80
2024/01/14 02:20:28;;;;;;;;;34.00;32.00;;;;;;;;5050632;28;45263;-81
2024/01/14 02:22:55;;;;;;;;;30.25;28.50;;;;;;;;5051818;28;45295;-80
2024/01/14 02:25:20;;;;;;;;;32.25;28.25;;;;;;;;5044014;28;45437;-80
2024/01/14 02:27:45;;;;;;;;;32.67;28.00;;;;;;;;5045043;28;45855;-80
2024/01/14 02:30:11;;;;;;;;;27.00;24.00;;;;;;;;5050915;28;46198;-81
2024/01/14 02:32:37;;;;;;;;;29.25;28.50;;;;;;;;5041291;28;45227;-80
2024/01/14 02:35:05;;;;;;;;;32.50;27.00;;;;;;;;5053057;28;45397;-80
2024/01/14 02:37:30;;;;;;;;;32.50;24.25;;;;;;;;5034253;28;45344;-81
2024/01/14 02:39:55;;;;;;;;;39.33;32.33;;;;;;;;5035137;28;47994;-80
2024/01/14 02:42:20;;;;;;;;;31.67;30.67;;;;;;;;5051644;28;45263;-80
2024/01/14 02:44:45;;;;;;;;;37.33;26.33;;;;;;;;5026528;28;45428;-81
2024/01/14 02:47:10;;;;;;;;;34.00;29.33;;;;;;;;5042860;28;45451;-80
2024/01/14 02:49:36;;;;;;;;;32.67;26.33;;;;;;;;5026312;28;47558;-80
2024/01/14 02:52:02;;;;;;;;;40.25;35.00;;;;;;;;5041632;28;45393;-80
2024/01/14 02:54:27;;;;;;;;;41.75;26.75;;;;;;;;5024700;28;45544;-80
2024/01/14 02:56:53;;;;;;;;;33.67;28.00;;;;;;;;5027670;28;45659;-80
2024/01/14 02:59:18;;;;;;;;;34.00;29.00;;;;;;;;5030059;28;47143;-80
2024/01/14 03:01:46;;;;;;;;;29.75;25.00;;;;;;;;5042644;28;45445;-80
2024/01/14 03:04:11;;;;;;;;;42.75;35.00;;;;;;;;5048327;28;45336;-80
2024/01/14 03:06:36;;;;;;;;;38.00;32.00;;;;;;;;5048367;28;45419;-80
2024/01/14 03:09:02;;;;;;;;;42.33;30.67;;;;;;;;5030599;28;46982;-80
2024/01/14 03:11:27;;;;;;;;;46.33;34.00;;;;;;;;5048350;28;45259;-80
2024/01/14 03:13:52;;;;;;;;;44.00;32.00;;;;;;;;5048119;28;45301;-80
2024/01/14 03:16:18;;;;;;;;;35.67;31.67;;;;;;;;5031543;28;45390;-80
2024/01/14 03:18:43;;;;;;;;;42.00;32.75;;;;;;;;5026849;28;46954;-80
2024/01/14 03:21:15;;;;;;;;;44.33;38.33;;;;;;;;5032130;28;45332;-80
2024/01/14 03:23:40;;;;;;;;;44.00;35.00;;;;;;;;5028222;28;45403;-80
2024/01/14 03:26:05;;;;;;;;;40.00;32.00;;;;;;;;5030731;28;45256;-80
2024/01/14 03:28:30;;;;;;;;;44.00;35.67;;;;;;;;5047429;28;46584;-80
2024/01/14 03:30:56;;;;;;;;;46.00;34.33;;;;;;;;5042007;28;45429;-81
2024/01/14 03:33:21;;;;;;;;;36.00;27.33;;;;;;;;5021788;28;45409;-80
2024/01/14 03:35:46;;;;;;;;;39.33;32.00;;;;;;;;5051053;28;45402;-80
2024/01/14 03:38:11;;;;;;;;;40.00;34.00;;;;;;;;5032388;28;47565;-80
2024/01/14 03:40:36;;;;;;;;;49.00;38.33;;;;;;;;5032727;28;45312;-80
2024/01/14 03:43:01;;;;;;;;;45.67;38.67;;;;;;;;5047296;28;45307;-80
2024/01/14 03:45:27;;;;;;;;;38.67;34.67;;;;;;;;5048869;28;45399;-81
2024/01/14 03:47:52;;;;;;;;;43.67;34.00;;;;;;;;5043981;28;45384;-80
2024/01/14 03:50:17;;;;;;;;;46.67;34.33;;;;;;;;5047531;28;45322;-80
2024/01/14 03:52:42;;;;;;;;;43.33;36.33;;;;;;;;5044368;28;45236;-80
2024/01/14 03:55:07;;;;;;;;;47.33;42.33;;;;;;;;5043280;28;45786;-80
2024/01/14 03:57:33;;;;;;;;;36.75;35.00;;;;;;;;5048717;28;46306;-80
2024/01/14 03:59:58;;;;;;;;;46.00;40.33;;;;;;;;5046857;28;45401;-80
2024/01/14 04:02:23;;;;;;;;;47.67;33.33;;;;;;;;5043409;28;45372;-80
2024/01/14 04:04:48;;;;;;;;;47.00;34.00;;;;;;;;5050866;28;45536;-80
2024/01/14 04:07:13;;;;;;;;;44.00;36.33;;;;;;;;5048531;28;46511;-80
2024/01/14 04:09:39;;;;;;;;;45.67;35.33;;;;;;;;5032911;28;45825;-80
2024/01/14 04:12:04;;;;;;;;;44.00;34.33;;;;;;;;5048457;28;45344;-80
2024/01/14 04:14:29;;;;;;;;;52.25;39.75;;;;;;;;5033164;28;46132;-80
2024/01/14 04:16:54;;;;;;;;;44.00;36.00;;;;;;;;5047844;28;45582;-80
2024/01/14 04:19:19;;;;;;;;;46.67;41.33;;;;;;;;5050792;28;45362;-80
2024/01/14 04:21:45;;;;;;;;;42.67;38.00;;;;;;;;5043621;28;45674;-80
2024/01/14 04:24:10;;;;;;;;;47.00;41.67;;;;;;;;5032983;28;45367;-80
2024/01/14 04:26:35;;;;;;;;;42.00;32.67;;;;;;;;5047232;28;46637;-80
2024/01/14 04:29:00;;;;;;;;;49.00;40.33;;;;;;;;5049552;28;45385;-80
2024/01/14 04:31:25;;;;;;;;;53.67;44.00;;;;;;;;5049579;28;45366;-80
2024/01/14 04:33:50;;;;;;;;;46.67;36.00;;;;;;;;5050360;28;45419;-80
2024/01/14 04:36:16;;;;;;;;;39.00;33.67;;;;;;;;5051928;28;45452;-80
2024/01/14 04:38:41;;;;;;;;;55.33;40.33;;;;;;;;5056986;28;45445;-80
2024/01/14 04:41:06;;;;;;;;;48.75;37.50;;;;;;;;5051833;28;45265;-80
2024/01/14 04:43:32;;;;;;;;;45.75;37.25;;;;;;;;5047114;28;45693;-80
2024/01/14 04:45:57;;;;;;;;;43.00;34.67;;;;;;;;5039346;28;45232;-80
2024/01/14 04:48:22;;;;;;;;;34.67;31.67;;;;;;;;5044294;28;45359;-80
2024/01/14 04:50:47;;;;;;;;;39.25;36.25;;;;;;;;5029478;28;45402;-80
2024/01/14 04:53:13;;;;;;;;;37.67;26.67;;;;;;;;5029340;28;45428;-81
2024/01/14 04:55:38;;;;;;;;;49.33;38.67;;;;;;;;5020483;28;47632;-80
2024/01/14 04:58:03;;;;;;;;;47.33;39.00;;;;;;;;5040704;28;45169;-80
2024/01/14 05:00:29;;;;;;;;;43.50;35.50;;;;;;;;5038688;28;45477;-80
2024/01/14 05:02:54;;;;;;;;;54.75;39.25;;;;;;;;5035547;28;45671;-85
2024/01/14 05:05:19;;;;;;;;;43.00;38.00;;;;;;;;5047744;28;45247;-85
2024/01/14 05:07:44;;;;;;;;;44.67;32.67;;;;;;;;5052916;28;45252;-85
2024/01/14 05:10:09;;;;;;;;;40.67;31.00;;;;;;;;5047858;28;45219;-85
2024/01/14 05:12:35;;;;;;;;;55.00;41.00;;;;;;;;5052519;28;45279;-85
2024/01/14 05:15:00;;;;;;;;;43.00;32.50;;;;;;;;5046941;28;45674;-85
2024/01/14 05:17:26;;;;;;;;;43.50;35.50;;;;;;;;5052275;28;45274;-85
2024/01/14 05:19:51;;;;;;;;;49.50;40.25;;;;;;;;5047301;28;45283;-85
2024/01/14 05:22:17;;;;;;;;;54.50;41.50;;;;;;;;5033529;28;45712;-85
2024/01/14 05:24:42;;;;;;;;;48.50;40.50;;;;;;;;5046136;28;45573;-85
2024/01/14 05:27:07;;;;;;;;;50.75;40.00;;;;;;;;5044839;28;45395;-85
2024/01/14 05:29:32;;;;;;;;;47.33;36.00;;;;;;;;5048157;28;45270;-85
2024/01/14 05:31:58;;;;;;;;;54.67;40.67;;;;;;;;5030345;28;45298;-85
2024/01/14 05:34:23;;;;;;;;;49.25;37.00;;;;;;;;5048204;28;45975;-85
2024/01/14 05:36:48;;;;;;;;;47.50;41.50;;;;;;;;5053943;28;45310;-84
2024/01/14 05:39:15;;;;;;;;;51.00;39.67;;;;;;;;5033814;28;45299;-85
2024/01/14 05:41:40;;;;;;;;;51.75;37.00;;;;;;;;5036680;28;45370;-85
2024/01/14 05:44:05;;;;;;;;;51.00;40.33;;;;;;;;5039267;28;46229;-85
2024/01/14 05:46:30;;;;;;;;;52.00;41.00;;;;;;;;5039296;28;45384;-85
2024/01/14 05:48:56;;;;;;;;;55.67;44.00;;;;;;;;5025174;28;45321;-84
2024/01/14 05:51:21;;;;;;;;;53.67;41.33;;;;;;;;5030297;28;45693;-85
2024/01/14 05:53:46;;;;;;;;;43.67;37.00;;;;;;;;5030625;28;47159;-85
2024/01/14 05:56:12;;;;;;;;;53.75;42.00;;;;;;;;5042293;28;45313;-85
2024/01/14 05:58:38;;;;;;;;;59.00;42.00;;;;;;;;5030845;28;45237;-80
2024/01/14 06:01:03;;;;;;;;;46.50;39.50;;;;;;;;5049286;28;45449;-80
2024/01/14 06:03:28;;;;;;;;;37.00;32.75;;;;;;;;5047816;28;45275;-80
2024/01/14 06:05:53;;;;;;;;;45.00;37.00;;;;;;;;5045585;28;45172;-80
2024/01/14 06:08:18;;;;;;;;;60.67;44.00;;;;;;;;5042728;28;45426;-80
2024/01/14 06:10:44;;;;;;;;;54.33;45.33;;;;;;;;5031391;28;45673;-80
2024/01/14 06:13:09;;;;;;;;;53.33;42.33;;;;;;;;5045687;28;45477;-80
2024/01/14 06:15:34;;;;;;;;;61.33;45.67;;;;;;;;5029203;28;45284;-85
2024/01/14 06:17:59;;;;;;;;;40.33;33.33;;;;;;;;5045800;28;45369;-85
2024/01/14 06:20:24;;;;;;;;;47.33;41.33;;;;;;;;5043648;28;45423;-85
2024/01/14 06:22:50;;;;;;;;;50.00;37.67;;;;;;;;5047050;28;45579;-85
2024/01/14 06:25:15;;;;;;;;;45.00;36.33;;;;;;;;5031446;28;46188;-85
2024/01/14 06:27:40;;;;;;;;;51.67;41.33;;;;;;;;5040300;28;45230;-85
2024/01/14 06:30:06;;;;;;;;;42.50;37.25;;;;;;;;5043460;28;47410;-85
2024/01/14 06:32:31;;;;;;;;;44.00;35.25;;;;;;;;5042552;28;45453;-85
2024/01/14 06:34:56;;;;;;;;;48.25;42.00;;;;;;;;5036973;28;45281;-85
2024/01/14 06:37:22;;;;;;;;;54.67;44.33;;;;;;;;5044101;28;45497;-85
2024/01/14 06:39:47;;;;;;;;;51.33;41.33;;;;;;;;5050985;28;45610;-85
2024/01/14 06:42:12;;;;;;;;;55.33;43.67;;;;;;;;5034534;28;47853;-85
2024/01/14 06:44:38;;;;;;;;;56.33;38.00;;;;;;;;5044387;28;45393;-84
2024/01/14 06:47:03;;;;;;;;;46.50;44.00;;;;;;;;5039561;28;45247;-85
2024/01/14 06:49:28;;;;;;;;;51.33;40.00;;;;;;;;5025012;28;45449;-85
2024/01/14 06:51:54;;;;;;;;;49.00;41.67;;;;;;;;5030977;28;48167;-85
2024/01/14 06:54:19;;;;;;;;;51.00;40.67;;;;;;;;5024698;28;45972;-85
2024/01/14 06:56:45;;;;;;;;;52.67;42.67;;;;;;;;5038986;28;45294;-80
2024/01/14 06:59:13;;;;;;;;;45.50;36.25;;;;;;;;5046280;28;45308;-85
2024/01/14 07:01:39;;;;;;;;;45.00;39.25;;;;;;;;5031240;28;48339;-85
2024/01/14 07:04:04;;;;;;;;;43.00;40.25;;;;;;;;5029091;28;45518;-85
2024/01/14 07:06:29;;;;;;;;;37.00;29.33;;;;;;;;5029368;28;45320;-84
2024/01/14 07:08:54;;;;;;;;;56.33;42.33;;;;;;;;5029017;28;45836;-85
2024/01/14 07:11:19;;;;;;;;;58.00;45.00;;;;;;;;5048837;28;45457;-85
2024/01/14 07:13:45;;;;;;;;;52.00;42.00;;;;;;;;5046451;28;45250;-85
2024/01/14 07:16:10;;;;;;;;;53.50;42.75;;;;;;;;5030226;28;45588;-85
2024/01/14 07:18:35;;;;;;;;;56.67;42.00;;;;;;;;5046070;28;45176;-85
2024/01/14 07:21:00;;;;;;;;;48.33;42.33;;;;;;;;5030361;28;47495;-85
2024/01/14 07:23:25;;;;;;;;;51.33;37.00;;;;;;;;5046098;28;45383;-80
2024/01/14 07:25:50;;;;;;;;;48.00;40.67;;;;;;;;5031657;28;45320;-85
2024/01/14 07:28:16;;;;;;;;;51.00;37.67;;;;;;;;5025499;28;47060;-85
2024/01/14 07:30:41;;;;;;;;;47.25;43.75;;;;;;;;5034280;28;47214;-85
2024/01/14 07:33:06;;;;;;;;;42.67;39.33;;;;;;;;5046874;28;45453;-85
2024/01/14 07:35:32;;;;;;;;;54.00;42.67;;;;;;;;5034411;28;45452;-77
2024/01/14 07:37:57;;;;;;;;;51.50;42.75;;;;;;;;5047405;28;45323;-85
2024/01/14 07:40:23;;;;;;;;;42.33;38.67;;;;;;;;5027183;28;48001;-85
2024/01/14 07:42:48;;;;;;;;;51.67;38.00;;;;;;;;5043816;28;45344;-85
2024/01/14 07:45:13;;;;;;;;;52.33;33.67;;;;;;;;5023055;28;45424;-85
2024/01/14 07:47:38;;;;;;;;;45.67;38.33;;;;;;;;5024141;28;45933;-85
2024/01/14 07:50:04;;;;;;;;;43.00;36.33;;;;;;;;5039055;28;45330;-84
2024/01/14 07:52:29;;;;;;;;;48.25;36.75;;;;;;;;5041486;28;45346;-85
2024/01/14 07:54:54;;;;;;;;;53.00;43.00;;;;;;;;5020041;28;45246;-84
2024/01/14 07:57:20;;;;;;;;;50.50;42.75;;;;;;;;5040114;28;45461;-84
2024/01/14 07:59:45;;;;;;;;;44.00;34.67;;;;;;;;5038067;28;45398;-83
2024/01/14 08:02:10;;;;;;;;;57.67;43.00;;;;;;;;5036576;28;45244;-84
2024/01/14 08:04:35;;;;;;;;;41.33;35.33;;;;;;;;5020720;28;45291;-84
2024/01/14 08:07:00;;;;;;;;;47.00;43.00;;;;;;;;5047646;28;45606;-84
2024/01/14 08:09:25;;;;;;;;;38.00;32.67;;;;;;;;5040048;28;45229;-85
2024/01/14 08:11:51;;;;;;;;;47.67;36.33;;;;;;;;5037308;28;45288;-84
2024/01/14 08:14:16;;;;;;;;;39.33;31.67;;;;;;;;5052064;28;45548;-85
2024/01/14 08:16:41;;;;;;;;;58.33;43.00;;;;;;;;5020353;28;45419;-85
2024/01/14 08:19:07;;;;;;;;;42.00;38.33;;;;;;;;5040030;28;46137;-84
2024/01/14 08:21:32;;;;;;;;;46.25;40.00;;;;;;;;5021463;28;45782;-82
2024/01/14 08:23:58;;;;;;;;;36.00;25.33;;;;;;;;5038723;28;45245;-82
2024/01/14 08:26:23;;;;;;;;;32.00;22.75;;;;;;;;5047722;28;45204;-82
2024/01/14 08:28:48;;;;;;;;;52.33;43.00;;;;;;;;5027648;28;47186;-82
2024/01/14 08:31:14;;;;;;;;;46.75;42.50;;;;;;;;5048235;28;45354;-82
2024/01/14 08:33:42;;;;;;;;;56.00;43.00;;;;;;;;5044462;28;45195;-82
2024/01/14 08:36:09;;;;;;;;;46.00;38.75;;;;;;;;5033786;28;45423;-82
2024/01/14 08:38:34;;;;;;;;;54.00;42.00;;;;;;;;5041305;28;46078;-82
2024/01/14 08:41:00;;;;;;;;;49.00;38.75;;;;;;;;5041490;28;45380;-82
2024/01/14 08:43:25;;;;;;;;;45.33;39.67;;;;;;;;5058428;28;45496;-82
2024/01/14 08:45:50;;;;;;;;;43.33;32.33;;;;;;;;5030406;28;45230;-82
2024/01/14 08:48:15;;;;;;;;;40.00;38.00;;;;;;;;5035762;28;47224;-83
2024/01/14 08:50:41;;;;;;;;;39.00;34.00;;;;;;;;5047393;28;45352;-82
2024/01/14 08:53:06;;;;;;;;;43.75;34.50;;;;;;;;5050128;28;45205;-82
2024/01/14 08:55:32;;;;;;;;;53.00;42.00;;;;;;;;5040318;28;45414;-83
2024/01/14 08:57:57;;;;;;;;;43.25;35.75;;;;;;;;5048518;28;45239;-82
2024/01/14 09:00:22;;;;;;;;;46.50;40.25;;;;;;;;5048236;28;45410;-82
2024/01/14 09:02:47;;;;;;;;;32.00;29.67;;;;;;;;5053121;28;45306;-82
2024/01/14 09:05:13;;;;;;;;;42.50;36.75;;;;;;;;5025233;28;45393;-82
2024/01/14 09:07:38;;;;;;;;;35.00;29.25;;;;;;;;5049607;28;46230;-82
2024/01/14 09:10:05;;;;;;;;;63.75;46.00;;;;;;;;5031400;28;45338;-82
2024/01/14 09:12:30;;;;;;;;;54.00;40.00;;;;;;;;5020551;28;46477;-82
2024/01/14 09:14:55;;;;;;;;;54.33;38.00;;;;;;;;5047754;28;45172;-82
2024/01/14 09:17:20;;;;;;;;;52.33;40.67;;;;;;;;5052638;28;45368;-82
2024/01/14 09:19:45;;;;;;;;;40.33;30.00;;;;;;;;5050162;28;45303;-82
2024/01/14 09:22:11;;;;;;;;;33.67;31.00;;;;;;;;5047900;28;45639;-82
2024/01/14 09:24:36;;;;;;;;;44.67;36.00;;;;;;;;5050139;28;45473;-82
2024/01/14 09:27:03;;;;;;;;;43.00;37.00;;;;;;;;5034426;28;47713;-82
2024/01/14 09:29:28;;;;;;;;;42.75;35.25;;;;;;;;5047390;28;45460;-82
2024/01/14 09:31:54;;;;;;;;;49.67;37.00;;;;;;;;5030292;28;45613;-82
2024/01/14 09:34:19;;;;;;;;;47.00;36.25;;;;;;;;5022125;28;45636;-82
2024/01/14 09:36:44;;;;;;;;;40.00;35.33;;;;;;;;5035775;28;47157;-82
2024/01/14 09:39:13;;;;;;;;;38.33;33.00;;;;;;;;5051531;28;45392;-82
2024/01/14 09:41:56;;;;;;;;;31.75;26.50;;;;;;;;5053911;28;45422;-82
2024/01/14 09:44:21;;;;;;;;;49.75;40.00;;;;;;;;5031682;28;45588;-82
2024/01/14 09:46:47;;;;;;;;;37.67;33.33;;;;;;;;5042017;28;46099;-82
2024/01/14 09:49:13;;;;;;;;;45.75;37.25;;;;;;;;5037834;28;45503;-83
2024/01/14 09:51:39;;;;;;;;;46.50;38.00;;;;;;;;5016539;28;45451;-83
2024/01/14 09:54:04;;;;;;;;;53.50;38.75;;;;;;;;5027028;28;45691;-82
2024/01/14 09:56:31;;;;;;;;;43.50;31.50;;;;;;;;5019296;28;47359;-83
2024/01/14 09:58:57;;;;;;;;;50.75;39.00;;;;;;;;5033839;28;45311;-82
2024/01/14 10:01:30;;;;;;;;;43.50;37.00;;;;;;;;5027774;28;45676;-82
2024/01/14 10:03:56;;;;;;;;;52.50;41.75;;;;;;;;5043146;28;45307;-82
2024/01/14 10:06:21;;;;;;;;;58.50;43.50;;;;;;;;5041034;28;46031;-83
2024/01/14 10:08:47;;;;;;;;;56.33;45.00;;;;;;;;5040402;28;45314;-82
2024/01/14 10:11:12;;;;;;;;;40.50;39.00;;;;;;;;5007774;28;45311;-84
2024/01/14 10:13:38;;;;;;;;;57.33;44.33;;;;;;;;5021108;28;45601;-84
2024/01/14 10:16:04;;;;;;;;;55.50;43.25;;;;;;;;5039511;28;46469;-84
2024/01/14 10:18:29;;;;;;;;;61.75;45.50;;;;;;;;5043065;28;45286;-84
2024/01/14 10:20:55;;;;;;;;;51.33;43.00;;;;;;;;5033249;28;45440;-84
2024/01/14 10:23:24;;;;;;;;;56.50;45.50;;;;;;;;5022058;28;45395;-84
2024/01/14 10:25:51;;;;;;;;;47.25;43.00;;;;;;;;5032757;28;47323;-84
2024/01/14 10:28:17;;;;;;;;;61.25;45.25;;;;;;;;5038975;28;45555;-84
2024/01/14 10:30:43;;;;;;;;;67.75;47.25;;;;;;;;5021330;28;45304;-84
2024/01/14 10:33:09;;;;;;;;;61.50;47.75;;;;;;;;5039248;28;45306;-83
2024/01/14 10:35:34;;;;;;;;;64.25;50.75;;;;;;;;5038746;28;45805;-83
2024/01/14 10:38:00;;;;;;;;;59.00;43.33;;;;;;;;5033652;28;45393;-83
2024/01/14 10:40:26;;;;;;;;;69.00;50.50;;;;;;;;5037245;28;45366;-82
2024/01/14 10:42:52;;;;;;;;;49.25;45.00;;;;;;;;5020395;28;45489;-83
2024/01/14 10:45:17;;;;;;;;;51.25;44.50;;;;;;;;5039525;28;46404;-83
2024/01/14 10:47:46;;;;;;;;;45.00;37.00;;;;;;;;5039282;28;45373;-84
2024/01/14 10:50:13;;;;;;;;;55.25;46.75;;;;;;;;5020838;28;46627;-84
2024/01/14 10:52:42;;;;;;;;;57.50;46.25;;;;;;;;5015394;28;45469;-84
2024/01/14 10:55:24;;;;;;;;;58.75;47.75;;;;;;;;5018923;28;47452;-84
2024/01/14 10:57:51;;;;;;;;;63.25;44.75;;;;;;;;5019919;28;45538;-83
2024/01/14 11:00:20;;;;;;;;;55.75;45.00;;;;;;;;5038965;28;45328;-84
2024/01/14 11:02:46;;;;;;;;;60.75;47.75;;;;;;;;5040004;28;45441;-84
2024/01/14 11:05:12;;;;;;;;;57.00;45.25;;;;;;;;5021698;28;48068;-84
2024/01/14 11:07:37;;;;;;;;;60.75;46.00;;;;;;;;5023344;28;45591;-85
2024/01/14 11:10:04;;;;;;;;;60.00;47.75;;;;;;;;5026505;28;45366;-86
2024/01/14 11:12:38;;;;;;;;;58.00;47.25;;;;;;;;5032939;28;45324;-85
2024/01/14 11:15:06;;;;;;;;;35.00;28.50;;;;;;;;5036342;28;46172;-85
2024/01/14 11:17:40;;;;;;;;;66.00;51.00;;;;;;;;5036831;28;45279;-85
2024/01/14 11:20:06;;;;;;;;;57.00;42.25;;;;;;;;5038025;28;45460;-85
2024/01/14 11:22:31;;;;;;;;;58.75;46.25;;;;;;;;5030147;28;45394;-85
2024/01/14 11:24:56;;;;;;;;;61.00;43.67;;;;;;;;5036860;28;45366;-85
2024/01/14 11:27:22;;;;;;;;;63.33;46.33;;;;;;;;5035140;28;46519;-85
2024/01/14 11:29:47;;;;;;;;;57.00;42.67;;;;;;;;5019269;28;45391;-85
2024/01/14 11:32:13;;;;;;;;;53.67;43.33;;;;;;;;5018763;28;45823;-85
2024/01/14 11:34:44;;;;;;;;;52.50;44.00;;;;;;;;5036303;28;45790;-85
2024/01/14 11:37:09;;;;;;;;;66.00;48.50;;;;;;;;5032096;28;45474;-85
2024/01/14 11:39:34;;;;;;;;;54.33;44.00;;;;;;;;5006892;28;45437;-85
2024/01/14 11:41:59;;;;;;;;;64.33;47.33;;;;;;;;5034725;28;45524;-85
2024/01/14 11:44:31;;;;;;;;;54.33;42.00;;;;;;;;5033068;28;45527;-85
2024/01/14 11:46:56;;;;;;;;;50.25;39.75;;;;;;;;5036439;28;45589;-84
2024/01/14 11:49:22;;;;;;;;;63.75;45.75;;;;;;;;5019567;28;45548;-84
2024/01/14 11:51:52;;;;;;;;;49.75;37.50;;;;;;;;5036524;28;45726;-85
2024/01/14 11:54:17;;;;;;;;;54.50;43.25;;;;;;;;5013347;28;47390;-85
2024/01/14 11:56:42;;;;;;;;;59.33;46.00;;;;;;;;5036068;28;45324;-85
2024/01/14 11:59:08;;;;;;;;;66.33;47.33;;;;;;;;5019472;28;45449;-85
2024/01/14 12:01:33;;;;;;;;;59.00;45.00;;;;;;;;5035610;28;45524;-85
2024/01/14 12:04:00;;;;;;;;;46.75;39.50;;;;;;;;5022434;28;47390;-85
2024/01/14 12:06:25;;;;;;;;;45.75;37.75;;;;;;;;5022178;28;45493;-85
2024/01/14 12:08:58;;;;;;;;;46.75;42.75;;;;;;;;5041014;28;45559;-85
2024/01/14 12:11:24;;;;;;;;;47.75;39.25;;;;;;;;5035138;28;45514;-85
2024/01/14 12:13:50;;;;;;;;;54.00;43.25;;;;;;;;5023997;28;48460;-86
2024/01/14 12:16:15;;;;;;;;;52.33;41.00;;;;;;;;5048031;28;45573;-85
2024/01/14 12:18:41;;;;;;;;;45.75;39.00;;;;;;;;5023414;28;45432;-84
2024/01/14 12:21:06;;;;;;;;;55.00;40.00;;;;;;;;5049611;28;45495;-84
2024/01/14 12:23:31;;;;;;;;;53.25;43.25;;;;;;;;5038107;28;46380;-83
2024/01/14 12:26:04;;;;;;;;;55.00;43.75;;;;;;;;5036670;28;45506;-85
2024/01/14 12:28:29;;;;;;;;;53.75;42.25;;;;;;;;5021152;28;45464;-87
2024/01/14 12:30:56;;;;;;;;;48.50;41.75;;;;;;;;5037940;28;45508;-84
2024/01/14 12:33:22;;;;;;;;;42.00;37.00;;;;;;;;5037872;28;46251;-84
2024/01/14 12:35:47;;;;;;;;;44.00;33.50;;;;;;;;5025882;28;45762;-85
2024/01/14 12:38:12;;;;;;;;;62.00;47.33;;;;;;;;5019916;28;45876;-83
2024/01/14 12:40:37;;;;;;;;;49.50;45.50;;;;;;;;5042073;28;45543;-83
2024/01/14 12:43:04;;;;;;;;;49.67;41.33;;;;;;;;5047465;28;45616;-83
2024/01/14 12:45:30;;;;;;;;;49.50;41.00;;;;;;;;5039770;28;46049;-83
2024/01/14 12:47:56;;;;;;;;;55.00;44.67;;;;;;;;5044728;28;45584;-83
2024/01/14 12:50:21;;;;;;;;;45.75;40.00;;;;;;;;5029210;28;45836;-83
2024/01/14 12:52:46;;;;;;;;;51.33;43.00;;;;;;;;5019467;28;47234;-83
2024/01/14 12:55:19;;;;;;;;;48.67;42.00;;;;;;;;5047221;28;45665;-83
2024/01/14 12:57:45;;;;;;;;;45.75;39.50;;;;;;;;5057666;28;45574;-83
2024/01/14 13:00:10;;;;;;;;;54.00;45.00;;;;;;;;5057301;28;45482;-83
2024/01/14 13:02:35;;;;;;;;;42.75;32.00;;;;;;;;5025719;28;47408;-83
2024/01/14 13:05:01;;;;;;;;;61.33;47.33;;;;;;;;5037717;28;45454;-83
2024/01/14 13:07:26;;;;;;;;;52.67;39.00;;;;;;;;5038613;28;45424;-83
2024/01/14 13:09:51;;;;;;;;;54.75;43.00;;;;;;;;5019078;28;45462;-83
2024/01/14 13:12:16;;;;;;;;;50.00;42.00;;;;;;;;5010426;28;47333;-83
2024/01/14 13:14:41;;;;;;;;;47.67;40.33;;;;;;;;5035954;28;45347;-83
2024/01/14 13:17:07;;;;;;;;;67.00;48.00;;;;;;;;5043244;28;45621;-83
2024/01/14 13:19:32;;;;;;;;;36.67;27.67;;;;;;;;5021141;28;45622;-83
2024/01/14 13:21:57;;;;;;;;;57.00;43.67;;;;;;;;5043872;28;45375;-83
2024/01/14 13:24:22;;;;;;;;;54.67;40.33;;;;;;;;5050307;28;45384;-83
2024/01/14 13:26:47;;;;;;;;;58.00;46.33;;;;;;;;5048682;28;45586;-83
2024/01/14 13:29:12;;;;;;;;;60.00;42.67;;;;;;;;5039172;28;45355;-83
2024/01/14 13:31:39;;;;;;;;;37.67;29.33;;;;;;;;5019390;28;47353;-83
2024/01/14 13:34:04;;;;;;;;;43.00;34.25;;;;;;;;5036371;28;45393;-83
2024/01/14 13:36:29;;;;;;;;;47.67;40.00;;;;;;;;5037045;28;45650;-83
2024/01/14 13:39:00;;;;;;;;;53.00;42.00;;;;;;;;5044963;28;45498;-83
2024/01/14 13:41:26;;;;;;;;;48.50;40.75;;;;;;;;5027620;28;46444;-83
2024/01/14 13:43:51;;;;;;;;;60.00;46.33;;;;;;;;5043246;28;45476;-83
2024/01/14 13:46:16;;;;;;;;;48.00;37.33;;;;;;;;5041002;28;45335;-83
2024/01/14 13:48:41;;;;;;;;;62.00;43.67;;;;;;;;5019073;28;45284;-82
2024/01/14 13:51:06;;;;;;;;;55.00;45.00;;;;;;;;5036627;28;46469;-83
2024/01/14 13:53:31;;;;;;;;;48.67;40.33;;;;;;;;5039902;28;45616;-84
2024/01/14 13:55:57;;;;;;;;;45.33;39.00;;;;;;;;5045597;28;45531;-83
2024/01/14 13:58:22;;;;;;;;;48.33;40.67;;;;;;;;5023878;28;45471;-83
2024/01/14 14:00:47;;;;;;;;;54.33;44.33;;;;;;;;5037302;28;45623;-83
2024/01/14 14:03:12;;;;;;;;;50.00;43.00;;;;;;;;5044135;28;45233;-84
2024/01/14 14:05:37;;;;;;;;;59.33;44.33;;;;;;;;5021834;28;45674;-83
2024/01/14 14:08:03;;;;;;;;;51.33;43.00;;;;;;;;5039375;28;45287;-83